Yucca Valley, California
Current Conditions -  °F | °C
As of 4:56 AM on Saturday 01 Nov 2014 (Local Time) from KNXP Reporting Station
Few Clouds Few Clouds  
Wind Chill: 61°   Ceiling: Unl
Heat Index: 61°   Visibility: 4mi
Dew Point: 46°   Wind: 35mph
Humidity: 58%   Direction: 230°SW
Pressure: 29.81"   Gusts: 45mph
Location:  34.12°N, 116.41°W
Report Text: KNXP 011156Z AUTO 23030G39KT 4SM FEW002 16/08 A2981 RMK AO2 PK WND 22039/1155 SLP063 T01610078 10189 20156 58004 $
Loading
Personal Weather Stations






























Interactive Weather Map
Tropical Storm Tracking
New forecast layout! Learn more

10-Day Weather Forecast

Advertisements
Track Severe Weather on mobile